createdAt,value
2022-11-09T00:01:44.382Z,72.54
2022-11-09T00:04:13.565Z,72.62
2022-11-09T00:06:42.747Z,72.64
2022-11-09T00:09:11.334Z,72.80
2022-11-09T00:11:40.370Z,72.88
2022-11-09T00:14:15.567Z,72.77
2022-11-09T00:16:44.728Z,72.77
2022-11-09T00:19:14.409Z,72.76
2022-11-09T00:21:43.111Z,72.83
2022-11-09T00:24:12.378Z,72.84
2022-11-09T00:26:40.957Z,72.88
2022-11-09T00:29:10.140Z,73.05
2022-11-09T00:31:39.034Z,72.95
2022-11-09T00:34:09.038Z,73.14
2022-11-09T00:36:38.343Z,73.17
2022-11-09T00:39:09.360Z,73.11
2022-11-09T00:41:37.934Z,73.13
2022-11-09T00:44:07.279Z,73.08
2022-11-09T00:46:36.813Z,73.10
2022-11-09T00:49:05.743Z,73.23
2022-11-09T00:51:34.428Z,73.17
2022-11-09T00:54:03.707Z,73.18
2022-11-09T00:56:32.314Z,73.28
2022-11-09T00:59:01.348Z,73.24
2022-11-09T01:01:30.608Z,73.34
2022-11-09T01:03:59.226Z,73.23
2022-11-09T01:06:28.001Z,73.26
2022-11-09T01:08:58.365Z,73.51
2022-11-09T01:11:26.930Z,73.55
2022-11-09T01:13:56.672Z,73.43
2022-11-09T01:16:26.111Z,73.50
2022-11-09T01:18:56.557Z,73.44
2022-11-09T01:21:27.910Z,73.47
2022-11-09T01:23:58.711Z,73.43
2022-11-09T01:26:29.786Z,73.50
2022-11-09T01:28:59.172Z,73.51
2022-11-09T01:31:27.934Z,73.55
2022-11-09T01:33:57.036Z,73.60
2022-11-09T01:36:26.691Z,73.60
2022-11-09T01:38:55.345Z,73.66
2022-11-09T01:41:28.987Z,73.52
2022-11-09T01:44:11.477Z,73.69
2022-11-09T01:46:52.497Z,73.69
2022-11-09T01:49:32.425Z,73.65
2022-11-09T01:52:29.473Z,73.77
2022-11-09T01:55:03.810Z,73.76
2022-11-09T01:57:39.133Z,73.83
2022-11-09T02:00:12.010Z,73.73
2022-11-09T02:02:52.996Z,73.86
2022-11-09T02:05:26.813Z,73.97
2022-11-09T02:07:58.351Z,73.97
2022-11-09T02:10:44.092Z,74.06
2022-11-09T02:13:16.305Z,74.10
2022-11-09T02:15:46.147Z,74.07
2022-11-09T02:18:15.287Z,74.21
2022-11-09T02:20:48.433Z,74.14
2022-11-09T02:23:17.841Z,74.12
2022-11-09T02:26:10.181Z,74.15
2022-11-09T02:28:40.939Z,74.16
2022-11-09T02:31:11.908Z,74.18
2022-11-09T02:34:05.410Z,74.14
2022-11-09T02:36:35.287Z,74.20
2022-11-09T02:39:05.392Z,74.29
2022-11-09T02:41:37.503Z,74.22
2022-11-09T02:44:06.434Z,74.22
2022-11-09T02:46:37.510Z,74.19
2022-11-09T02:49:06.745Z,74.30
2022-11-09T02:51:38.619Z,74.26
2022-11-09T02:54:07.376Z,74.23
2022-11-09T02:56:37.107Z,74.36
2022-11-09T02:59:06.400Z,74.48
2022-11-09T03:01:35.465Z,74.40
2022-11-09T03:04:04.391Z,74.32
2022-11-09T03:06:37.115Z,74.47
2022-11-09T03:09:13.437Z,74.34
2022-11-09T03:11:43.513Z,74.49
2022-11-09T03:14:13.328Z,74.42
2022-11-09T03:16:50.422Z,74.53
2022-11-09T03:19:19.259Z,74.76
2022-11-09T03:21:50.025Z,74.77
2022-11-09T03:24:22.813Z,74.74
2022-11-09T03:26:52.934Z,74.93
2022-11-09T03:29:21.819Z,75.13
2022-11-09T03:31:50.435Z,75.29
2022-11-09T03:34:20.200Z,75.20
2022-11-09T03:36:48.879Z,75.26
2022-11-09T03:39:18.293Z,75.32
2022-11-09T03:41:47.659Z,75.22
2022-11-09T03:44:16.796Z,75.11
2022-11-09T03:46:45.335Z,75.15
2022-11-09T03:49:15.078Z,75.12
2022-11-09T03:51:43.676Z,75.18
2022-11-09T03:54:12.404Z,75.19
2022-11-09T03:56:41.844Z,75.15
2022-11-09T03:59:10.490Z,75.20
2022-11-09T04:01:39.136Z,75.04
2022-11-09T04:04:08.067Z,75.21
2022-11-09T04:06:36.794Z,75.33
2022-11-09T04:09:05.882Z,75.39
2022-11-09T04:11:35.404Z,75.43
2022-11-09T04:14:03.930Z,75.38
2022-11-09T04:16:33.520Z,75.45
2022-11-09T04:19:02.676Z,75.55
2022-11-09T04:21:31.313Z,75.54
2022-11-09T04:24:00.037Z,75.49
2022-11-09T04:26:29.672Z,75.52
2022-11-09T04:28:58.264Z,75.62
2022-11-09T04:31:28.176Z,75.61
2022-11-09T04:33:57.875Z,75.67
2022-11-09T04:36:26.457Z,75.65
2022-11-09T04:38:54.942Z,75.56
2022-11-09T04:41:24.443Z,75.65
2022-11-09T04:43:53.035Z,75.87
2022-11-09T04:46:21.560Z,75.73
2022-11-09T04:48:50.634Z,75.80
2022-11-09T04:51:19.254Z,75.80
2022-11-09T04:53:47.852Z,75.70
2022-11-09T04:56:17.789Z,75.66
2022-11-09T04:58:46.693Z,75.69
2022-11-09T05:01:15.871Z,75.59
2022-11-09T05:03:45.385Z,75.75
2022-11-09T05:06:32.803Z,75.61
2022-11-09T05:09:05.711Z,75.89
2022-11-09T05:11:36.199Z,75.84
2022-11-09T05:14:05.384Z,75.80
2022-11-09T05:16:34.422Z,75.75
2022-11-09T05:19:02.993Z,75.73
2022-11-09T05:21:32.189Z,75.79
2022-11-09T05:24:01.351Z,75.85
2022-11-09T05:26:35.628Z,75.95
2022-11-09T05:29:07.901Z,75.93
2022-11-09T05:31:37.948Z,76.06
2022-11-09T05:34:07.960Z,75.94
2022-11-09T05:36:36.684Z,75.94
2022-11-09T05:39:05.355Z,76.05
2022-11-09T05:41:35.428Z,76.09
2022-11-09T05:44:04.337Z,76.10
2022-11-09T05:46:34.508Z,76.18
2022-11-09T05:49:03.630Z,76.14
2022-11-09T05:51:32.527Z,76.05
2022-11-09T05:54:01.396Z,76.06
2022-11-09T05:56:30.225Z,76.02
2022-11-09T05:58:58.985Z,76.04
2022-11-09T06:01:27.623Z,76.22
2022-11-09T06:03:56.522Z,76.37
2022-11-09T06:06:25.319Z,76.32
2022-11-09T06:08:54.938Z,76.37
2022-11-09T06:11:24.613Z,76.20
2022-11-09T06:13:53.938Z,76.23
2022-11-09T06:16:22.833Z,76.28
2022-11-09T06:18:51.939Z,76.27
2022-11-09T06:21:20.539Z,76.18
2022-11-09T06:23:49.626Z,76.29
2022-11-09T06:26:19.080Z,76.24
2022-11-09T06:28:48.003Z,76.17
2022-11-09T06:31:18.082Z,76.03
2022-11-09T06:33:47.288Z,76.28
2022-11-09T06:36:16.197Z,76.24
2022-11-09T06:38:44.804Z,76.20
2022-11-09T06:41:13.518Z,76.25
2022-11-09T06:43:42.947Z,76.19
2022-11-09T06:46:12.110Z,76.17
2022-11-09T06:48:40.886Z,76.12
2022-11-09T06:51:12.728Z,76.09
2022-11-09T06:53:41.880Z,76.02
2022-11-09T06:56:11.724Z,76.05
2022-11-09T06:58:40.365Z,76.12
2022-11-09T07:01:17.115Z,76.17
2022-11-09T07:03:46.286Z,76.18
2022-11-09T07:06:14.938Z,76.18
2022-11-09T07:08:43.817Z,76.14
2022-11-09T07:11:16.746Z,76.10
2022-11-09T07:13:45.704Z,76.16
2022-11-09T07:16:18.201Z,76.21
2022-11-09T07:18:46.970Z,76.30
2022-11-09T07:21:15.725Z,76.04
2022-11-09T07:23:44.983Z,75.84
2022-11-09T07:26:13.906Z,75.73
2022-11-09T07:28:43.427Z,75.62
2022-11-09T07:31:12.764Z,75.73
2022-11-09T07:33:41.321Z,75.52
2022-11-09T07:36:10.178Z,75.39
2022-11-09T07:38:39.327Z,75.80
2022-11-09T07:41:08.215Z,76.10
2022-11-09T07:43:37.343Z,76.15
2022-11-09T07:46:06.556Z,75.72
2022-11-09T07:48:35.118Z,75.99
2022-11-09T07:51:03.905Z,75.78
2022-11-09T07:53:33.065Z,75.56
2022-11-09T07:56:03.897Z,75.62
2022-11-09T07:58:33.174Z,75.62
2022-11-09T08:01:02.712Z,75.56
2022-11-09T08:03:31.348Z,75.66
2022-11-09T08:06:00.255Z,75.65
2022-11-09T08:08:29.168Z,75.61
2022-11-09T08:10:58.857Z,75.38
2022-11-09T08:13:27.674Z,75.27
2022-11-09T08:15:56.630Z,75.18
2022-11-09T08:18:25.494Z,75.23
2022-11-09T08:20:54.121Z,74.97
2022-11-09T08:23:23.596Z,74.97
2022-11-09T08:25:52.594Z,75.04
2022-11-09T08:28:22.205Z,74.81
2022-11-09T08:31:03.499Z,74.45
2022-11-09T08:33:37.374Z,74.27
2022-11-09T08:36:14.828Z,73.82
2022-11-09T08:38:47.134Z,73.55
2022-11-09T08:41:15.912Z,73.61
2022-11-09T08:43:45.352Z,73.65
2022-11-09T08:46:17.450Z,73.52
2022-11-09T08:48:46.721Z,73.43
2022-11-09T08:51:15.386Z,72.96
2022-11-09T08:54:10.263Z,72.96
2022-11-09T08:56:50.313Z,72.87
2022-11-09T08:59:35.210Z,72.95
2022-11-09T09:02:30.763Z,72.87
2022-11-09T09:04:59.811Z,72.48
2022-11-09T09:07:28.499Z,71.98
2022-11-09T09:09:57.643Z,72.13
2022-11-09T09:12:26.305Z,71.77
2022-11-09T09:14:55.611Z,71.88
2022-11-09T09:17:24.580Z,71.93
2022-11-09T09:19:53.392Z,71.60
2022-11-09T09:22:22.263Z,71.65
2022-11-09T09:24:51.300Z,71.51
2022-11-09T09:27:20.725Z,71.26
2022-11-09T09:29:49.872Z,70.89
2022-11-09T09:32:18.610Z,70.53
2022-11-09T09:34:47.669Z,70.28
2022-11-09T09:37:17.814Z,69.87
2022-11-09T09:39:46.556Z,70.18
2022-11-09T09:42:23.434Z,70.45
2022-11-09T09:45:16.580Z,70.45
2022-11-09T09:48:06.088Z,70.39
2022-11-09T09:50:47.475Z,70.27
2022-11-09T09:53:43.348Z,69.80
2022-11-09T09:56:19.826Z,69.70
2022-11-09T09:59:00.528Z,69.02
2022-11-09T10:01:44.255Z,68.63
2022-11-09T10:04:22.952Z,69.15
2022-11-09T10:07:32.996Z,68.82
2022-11-09T10:10:20.740Z,68.93
2022-11-09T10:13:13.491Z,68.47
2022-11-09T10:15:54.244Z,68.46
2022-11-09T10:18:41.984Z,68.24
2022-11-09T10:21:29.157Z,68.44
2022-11-09T10:24:16.755Z,68.28
2022-11-09T10:26:49.141Z,68.05
2022-11-09T10:29:27.011Z,67.99
2022-11-09T10:32:01.914Z,67.95
2022-11-09T10:34:36.364Z,68.07
2022-11-09T10:37:20.769Z,67.74
2022-11-09T10:39:53.435Z,67.47
2022-11-09T10:42:45.790Z,67.23
2022-11-09T10:45:38.631Z,67.00
2022-11-09T10:48:40.366Z,66.49
2022-11-09T10:51:35.927Z,66.58
2022-11-09T10:54:27.970Z,66.65
2022-11-09T10:57:21.963Z,66.44
2022-11-09T11:00:20.793Z,66.02
2022-11-09T11:03:16.935Z,65.74
2022-11-09T11:06:15.091Z,65.68
2022-11-09T11:09:05.589Z,65.50
2022-11-09T11:12:16.680Z,65.55
2022-11-09T11:15:04.316Z,65.79
2022-11-09T11:18:02.571Z,65.94
2022-11-09T11:21:07.790Z,65.69
2022-11-09T11:24:10.910Z,65.92
2022-11-09T11:27:10.892Z,65.82
2022-11-09T11:30:07.455Z,65.76
2022-11-09T11:32:59.064Z,65.66
2022-11-09T11:36:08.401Z,65.62
2022-11-09T11:39:17.274Z,65.67
2022-11-09T11:42:43.703Z,65.59
2022-11-09T11:45:42.347Z,65.61
2022-11-09T11:49:08.744Z,65.61
2022-11-09T11:52:23.741Z,65.66
2022-11-09T11:55:30.839Z,65.73
2022-11-09T11:58:53.744Z,65.73
2022-11-09T12:01:56.302Z,65.69
2022-11-09T12:05:08.306Z,65.57
2022-11-09T12:08:37.969Z,65.40
2022-11-09T12:11:31.748Z,65.49
2022-11-09T12:14:33.328Z,65.40
2022-11-09T12:17:40.607Z,65.33
2022-11-09T12:20:42.432Z,65.39
2022-11-09T12:23:51.350Z,65.33
2022-11-09T12:27:43.592Z,65.37
2022-11-09T12:30:43.230Z,65.41
2022-11-09T12:33:48.636Z,65.37
2022-11-09T12:36:45.201Z,65.22
2022-11-09T12:39:38.558Z,65.24
2022-11-09T12:42:34.645Z,65.23
2022-11-09T12:45:30.973Z,65.21
2022-11-09T12:48:31.360Z,65.25
2022-11-09T12:51:20.949Z,65.36
2022-11-09T12:54:12.062Z,65.29
2022-11-09T12:57:13.629Z,65.41
2022-11-09T13:00:01.636Z,65.35
2022-11-09T13:03:02.389Z,65.30
2022-11-09T13:06:28.558Z,65.32
2022-11-09T13:09:15.814Z,65.35
2022-11-09T13:12:36.220Z,65.26
2022-11-09T13:15:29.986Z,65.23
2022-11-09T13:18:48.131Z,65.33
2022-11-09T13:21:37.470Z,65.39
2022-11-09T13:24:30.618Z,65.28
2022-11-09T13:27:33.510Z,65.16
2022-11-09T13:30:25.619Z,65.36
2022-11-09T13:33:22.752Z,65.30
2022-11-09T13:36:10.906Z,65.44
2022-11-09T13:39:33.334Z,65.36
2022-11-09T13:42:33.242Z,65.25
2022-11-09T13:45:30.704Z,65.30
2022-11-09T13:48:39.937Z,65.28
2022-11-09T13:51:36.711Z,65.24
2022-11-09T13:54:35.603Z,65.22
2022-11-09T13:57:26.092Z,65.27
2022-11-09T14:00:23.620Z,65.32
2022-11-09T14:03:24.645Z,65.36
2022-11-09T14:06:14.018Z,65.39
2022-11-09T14:09:02.468Z,65.33
2022-11-09T14:12:09.201Z,65.38
2022-11-09T14:14:57.180Z,65.36
2022-11-09T14:17:50.110Z,65.33
2022-11-09T14:20:41.576Z,65.33
2022-11-09T14:23:31.549Z,65.44
2022-11-09T14:26:22.509Z,65.54
2022-11-09T14:29:24.571Z,65.61
2022-11-09T14:32:36.182Z,65.67
2022-11-09T14:35:28.673Z,65.66
2022-11-09T14:38:24.086Z,65.63
2022-11-09T14:41:23.473Z,65.67
2022-11-09T14:44:24.046Z,65.69
2022-11-09T14:47:20.943Z,65.76
2022-11-09T14:50:16.029Z,65.79
2022-11-09T14:53:05.357Z,65.78
2022-11-09T14:55:55.982Z,65.91
2022-11-09T14:58:45.020Z,65.92
2022-11-09T15:01:33.031Z,65.91
2022-11-09T15:04:23.619Z,65.96
2022-11-09T15:07:19.859Z,65.93
2022-11-09T15:10:19.254Z,65.94
2022-11-09T15:13:08.869Z,66.02
2022-11-09T15:15:56.190Z,65.99
2022-11-09T15:18:47.081Z,66.07
2022-11-09T15:21:38.309Z,66.11
2022-11-09T15:24:28.941Z,66.16
2022-11-09T15:27:35.399Z,66.07
2022-11-09T15:30:29.575Z,66.15
2022-11-09T15:33:24.669Z,66.19
2022-11-09T15:36:35.939Z,66.27
2022-11-09T15:39:24.734Z,66.22
2022-11-09T15:42:13.436Z,66.26
2022-11-09T15:45:01.087Z,66.23
2022-11-09T15:47:56.500Z,66.32
2022-11-09T15:50:43.979Z,66.45
2022-11-09T15:53:31.628Z,66.48
2022-11-09T15:56:23.848Z,66.51
2022-11-09T15:59:18.683Z,66.45
2022-11-09T16:02:06.843Z,66.51
2022-11-09T16:04:54.223Z,66.53
2022-11-09T16:07:53.163Z,66.59
2022-11-09T16:10:42.130Z,66.63
2022-11-09T16:13:30.142Z,66.70
2022-11-09T16:16:17.570Z,66.78
2022-11-09T16:19:05.308Z,66.87
2022-11-09T16:21:55.854Z,66.86
2022-11-09T16:24:43.771Z,66.87
2022-11-09T16:27:49.778Z,66.90
2022-11-09T16:30:45.507Z,66.94
2022-11-09T16:33:34.874Z,66.94
2022-11-09T16:36:25.797Z,67.00
2022-11-09T16:39:17.421Z,67.03
2022-11-09T16:42:10.640Z,67.03
2022-11-09T16:45:05.815Z,66.99
2022-11-09T16:47:57.450Z,67.07
2022-11-09T16:50:45.630Z,67.08
2022-11-09T16:53:33.281Z,67.07
2022-11-09T16:56:20.904Z,67.21
2022-11-09T16:59:08.530Z,67.22
2022-11-09T17:01:59.185Z,67.22
2022-11-09T17:04:46.391Z,67.37
2022-11-09T17:07:42.595Z,67.44
2022-11-09T17:10:31.313Z,67.42
2022-11-09T17:13:20.205Z,67.45
2022-11-09T17:16:12.784Z,67.48
2022-11-09T17:19:00.851Z,67.55
2022-11-09T17:21:48.772Z,67.57
2022-11-09T17:24:38.045Z,67.41
2022-11-09T17:27:25.453Z,67.55
2022-11-09T17:30:13.428Z,67.56
2022-11-09T17:33:01.069Z,67.65
2022-11-09T17:35:49.499Z,67.60
2022-11-09T17:38:37.739Z,67.55
2022-11-09T17:41:26.248Z,67.60
2022-11-09T17:44:13.875Z,67.74
2022-11-09T17:47:02.460Z,67.74
2022-11-09T17:49:49.768Z,67.80
2022-11-09T17:52:37.870Z,67.84
2022-11-09T17:55:25.640Z,67.97
2022-11-09T17:58:13.669Z,68.02
2022-11-09T18:01:14.796Z,67.92
2022-11-09T18:04:26.552Z,67.88
2022-11-09T18:07:33.728Z,67.98
2022-11-09T18:10:51.949Z,68.10
2022-11-09T18:14:01.300Z,68.14
2022-11-09T18:17:17.803Z,68.06
2022-11-09T18:20:37.980Z,68.17
2022-11-09T18:24:05.544Z,68.20
2022-11-09T18:27:05.763Z,68.26
2022-11-09T18:30:25.153Z,68.28
2022-11-09T18:33:34.989Z,68.34
2022-11-09T18:36:53.669Z,68.36
2022-11-09T18:40:21.716Z,68.43
2022-11-09T18:43:29.142Z,68.47
2022-11-09T18:46:17.807Z,68.48
2022-11-09T18:49:10.172Z,68.48
2022-11-09T18:52:01.196Z,68.53
2022-11-09T18:54:48.969Z,68.42
2022-11-09T18:57:37.244Z,68.54
2022-11-09T19:00:24.648Z,68.75
2022-11-09T19:03:16.413Z,68.76
2022-11-09T19:06:16.163Z,68.73
2022-11-09T19:09:23.155Z,68.82
2022-11-09T19:12:11.680Z,68.89
2022-11-09T19:15:00.670Z,68.92
2022-11-09T19:17:47.700Z,68.92
2022-11-09T19:20:38.737Z,68.91
2022-11-09T19:23:33.912Z,69.01
2022-11-09T19:26:23.059Z,68.94
2022-11-09T19:29:12.635Z,68.94
2022-11-09T19:32:00.528Z,68.93
2022-11-09T19:34:48.319Z,68.99
2022-11-09T19:37:36.421Z,68.96
2022-11-09T19:40:24.322Z,69.01
2022-11-09T19:43:12.221Z,69.05
2022-11-09T19:46:00.105Z,69.14
2022-11-09T19:48:48.507Z,69.20
2022-11-09T19:51:37.335Z,69.13
2022-11-09T19:54:26.577Z,69.22
2022-11-09T19:57:13.864Z,69.23
2022-11-09T20:00:02.042Z,69.26
2022-11-09T20:02:49.875Z,69.23
2022-11-09T20:05:37.783Z,69.30
2022-11-09T20:08:25.973Z,69.33
2022-11-09T20:11:36.419Z,69.43
2022-11-09T20:14:23.951Z,69.43
2022-11-09T20:17:11.858Z,69.38
2022-11-09T20:19:59.787Z,69.38
2022-11-09T20:22:48.363Z,69.40
2022-11-09T20:25:35.840Z,69.52
2022-11-09T20:28:23.972Z,69.51
2022-11-09T20:31:14.856Z,69.48
2022-11-09T20:34:03.970Z,69.51
2022-11-09T20:36:52.413Z,69.65
2022-11-09T20:39:41.792Z,69.59
2022-11-09T20:42:29.696Z,69.60
2022-11-09T20:45:17.768Z,69.65
2022-11-09T20:48:19.421Z,69.68
2022-11-09T20:51:18.084Z,69.77
2022-11-09T20:54:07.788Z,69.79
2022-11-09T20:56:56.165Z,69.71
2022-11-09T20:59:43.435Z,69.72
2022-11-09T21:02:31.674Z,69.82
2022-11-09T21:05:19.402Z,69.83
2022-11-09T21:08:07.332Z,69.79
2022-11-09T21:10:55.185Z,69.98
2022-11-09T21:13:44.445Z,69.93
2022-11-09T21:16:31.812Z,70.02
2022-11-09T21:19:19.395Z,70.00
2022-11-09T21:22:07.029Z,70.02
2022-11-09T21:25:13.170Z,70.22
2022-11-09T21:28:19.704Z,70.08
2022-11-09T21:31:07.592Z,70.13
2022-11-09T21:33:55.686Z,70.17
2022-11-09T21:36:44.366Z,70.24
2022-11-09T21:39:32.701Z,70.18
2022-11-09T21:42:20.498Z,70.24
2022-11-09T21:45:08.835Z,70.35
2022-11-09T21:47:56.455Z,70.35
2022-11-09T21:50:43.813Z,70.30
2022-11-09T21:53:33.044Z,70.39
2022-11-09T21:56:20.690Z,70.52
2022-11-09T21:59:08.680Z,70.56
2022-11-09T22:01:56.484Z,70.60
2022-11-09T22:04:43.822Z,70.58
2022-11-09T22:07:31.296Z,70.67
2022-11-09T22:10:19.266Z,70.56
2022-11-09T22:13:25.746Z,70.55
2022-11-09T22:16:13.350Z,70.61
2022-11-09T22:19:23.230Z,70.62
2022-11-09T22:22:11.155Z,70.59
2022-11-09T22:24:59.316Z,70.69
2022-11-09T22:27:46.950Z,70.76
2022-11-09T22:30:35.387Z,70.78
2022-11-09T22:33:27.086Z,70.82
2022-11-09T22:36:15.773Z,70.77
2022-11-09T22:39:02.766Z,70.81
2022-11-09T22:41:51.053Z,70.90
2022-11-09T22:44:38.252Z,70.99
2022-11-09T22:47:25.644Z,71.01
2022-11-09T22:50:13.292Z,71.15
2022-11-09T22:53:03.970Z,71.19
2022-11-09T22:55:56.581Z,71.30
2022-11-09T22:58:48.011Z,71.29
2022-11-09T23:01:35.429Z,71.32
2022-11-09T23:04:23.436Z,71.49
2022-11-09T23:07:10.707Z,71.63
2022-11-09T23:09:59.116Z,71.60
2022-11-09T23:12:46.253Z,71.73
2022-11-09T23:15:34.241Z,71.80
2022-11-09T23:18:40.514Z,71.86
2022-11-09T23:21:36.805Z,71.93
2022-11-09T23:24:42.677Z,72.08
2022-11-09T23:27:31.520Z,72.09
2022-11-09T23:30:19.610Z,72.13
2022-11-09T23:33:07.836Z,72.21
2022-11-09T23:35:56.467Z,72.29
2022-11-09T23:38:44.164Z,72.35
2022-11-09T23:41:31.535Z,72.29
2022-11-09T23:44:19.156Z,72.53
2022-11-09T23:47:06.751Z,72.68
2022-11-09T23:49:54.440Z,72.55
2022-11-09T23:52:41.796Z,72.60
2022-11-09T23:55:31.283Z,72.57
2022-11-09T23:58:18.910Z,72.66
